createdAt,value
2022-12-20T00:00:23.628Z,0.93
2022-12-20T00:03:20.258Z,0.92
2022-12-20T00:05:52.542Z,0.93
2022-12-20T00:08:25.007Z,0.96
2022-12-20T00:10:57.333Z,0.98
2022-12-20T00:13:29.774Z,1.01
2022-12-20T00:16:13.187Z,1.00
2022-12-20T00:18:46.201Z,1.00
2022-12-20T00:21:20.571Z,1.01
2022-12-20T00:23:54.600Z,1.04
2022-12-20T00:26:31.517Z,1.04
2022-12-20T00:29:05.228Z,1.06
2022-12-20T00:31:40.135Z,1.08
2022-12-20T00:34:14.788Z,1.09
2022-12-20T00:36:47.016Z,1.12
2022-12-20T00:39:19.467Z,1.13
2022-12-20T00:41:51.766Z,1.14
2022-12-20T00:44:24.097Z,1.17
2022-12-20T00:46:56.350Z,1.15
2022-12-20T00:49:31.717Z,1.15
2022-12-20T00:52:04.021Z,1.15
2022-12-20T00:54:36.547Z,1.15
2022-12-20T00:57:08.652Z,1.16
2022-12-20T00:59:41.045Z,1.18
2022-12-20T01:02:13.759Z,1.14
2022-12-20T01:04:46.406Z,1.19
2022-12-20T01:07:19.679Z,1.17
2022-12-20T01:09:58.814Z,1.20
2022-12-20T01:12:30.947Z,1.23
2022-12-20T01:15:04.139Z,1.20
2022-12-20T01:20:22.219Z,1.26
2022-12-20T01:22:54.633Z,1.29
2022-12-20T01:25:26.906Z,1.31
2022-12-20T01:27:58.973Z,1.33
2022-12-20T01:30:31.239Z,1.33
2022-12-20T01:33:03.397Z,1.34
2022-12-20T01:35:35.805Z,1.35
2022-12-20T01:38:08.216Z,1.36
2022-12-20T01:40:42.954Z,1.36
2022-12-20T01:43:19.037Z,1.38
2022-12-20T01:45:51.277Z,1.38
2022-12-20T01:48:27.300Z,1.37
2022-12-20T01:51:00.747Z,1.36
2022-12-20T01:53:33.451Z,1.35
2022-12-20T01:56:12.216Z,1.38
2022-12-20T01:58:46.023Z,1.42
2022-12-20T02:01:18.457Z,1.42
2022-12-20T02:03:52.629Z,1.42
2022-12-20T02:06:28.565Z,1.45
2022-12-20T02:09:03.897Z,1.43
2022-12-20T02:11:50.375Z,1.43
2022-12-20T02:14:33.663Z,1.44
2022-12-20T02:17:18.561Z,1.44
2022-12-20T02:20:08.257Z,1.42
2022-12-20T02:22:56.581Z,1.41
2022-12-20T02:25:48.015Z,1.41
2022-12-20T02:29:01.075Z,1.42
2022-12-20T02:31:41.600Z,1.39
2022-12-20T02:34:16.680Z,1.41
2022-12-20T02:36:48.893Z,1.41
2022-12-20T02:39:21.154Z,1.43
2022-12-20T02:41:56.432Z,1.45
2022-12-20T02:44:51.353Z,1.47
2022-12-20T02:47:28.548Z,1.43
2022-12-20T02:50:01.780Z,1.45
2022-12-20T02:52:35.357Z,1.47
2022-12-20T02:55:11.782Z,1.43
2022-12-20T02:57:56.210Z,1.46
2022-12-20T03:00:39.586Z,1.47
2022-12-20T03:03:25.085Z,1.47
2022-12-20T03:05:58.538Z,1.47
2022-12-20T03:08:30.814Z,1.48
2022-12-20T03:11:03.184Z,1.50
2022-12-20T03:13:36.863Z,1.50
2022-12-20T03:16:12.646Z,1.51
2022-12-20T03:18:46.148Z,1.50
2022-12-20T03:21:18.337Z,1.50
2022-12-20T03:23:50.843Z,1.55
2022-12-20T03:26:23.217Z,1.61
2022-12-20T03:28:59.303Z,1.64
2022-12-20T03:31:37.996Z,1.63
2022-12-20T03:34:10.944Z,1.65
2022-12-20T03:36:43.393Z,1.66
2022-12-20T03:39:15.696Z,1.68
2022-12-20T03:41:48.311Z,1.70
2022-12-20T03:44:25.488Z,1.72
2022-12-20T03:46:57.746Z,1.73
2022-12-20T03:49:29.947Z,1.74
2022-12-20T03:52:02.239Z,1.74
2022-12-20T03:54:34.878Z,1.75
2022-12-20T03:57:14.689Z,1.75
2022-12-20T03:59:47.477Z,1.77
2022-12-20T04:02:21.676Z,1.79
2022-12-20T04:04:54.643Z,1.79
2022-12-20T04:07:27.892Z,1.80
2022-12-20T04:10:00.124Z,1.81
2022-12-20T04:12:32.538Z,1.80
2022-12-20T04:15:06.225Z,1.80
2022-12-20T04:17:38.815Z,1.79
2022-12-20T04:20:20.146Z,1.73
2022-12-20T04:23:18.752Z,1.71
2022-12-20T04:25:52.735Z,1.72
2022-12-20T04:28:25.249Z,1.71
2022-12-20T04:30:58.438Z,1.70
2022-12-20T04:33:31.720Z,1.71
2022-12-20T04:36:04.443Z,1.70
2022-12-20T04:38:38.749Z,1.72
2022-12-20T04:41:22.489Z,1.71
2022-12-20T04:43:59.959Z,1.71
2022-12-20T04:46:39.843Z,1.71
2022-12-20T04:49:15.270Z,1.72
2022-12-20T04:51:48.594Z,1.72
2022-12-20T04:54:21.557Z,1.73
2022-12-20T04:57:02.274Z,1.74
2022-12-20T04:59:34.597Z,1.75
2022-12-20T05:02:07.878Z,1.80
2022-12-20T05:05:11.821Z,1.78
2022-12-20T05:07:49.439Z,1.79
2022-12-20T05:10:22.520Z,1.79
2022-12-20T05:12:55.489Z,1.81
2022-12-20T05:15:40.999Z,1.84
2022-12-20T05:18:13.322Z,1.85
2022-12-20T05:21:19.223Z,1.84
2022-12-20T05:24:11.030Z,1.83
2022-12-20T05:27:09.511Z,1.81
2022-12-20T05:29:42.019Z,1.82
2022-12-20T05:32:15.134Z,1.82
2022-12-20T05:34:53.209Z,1.83
2022-12-20T05:37:25.945Z,1.85
2022-12-20T05:39:59.295Z,1.84
2022-12-20T05:42:31.517Z,1.86
2022-12-20T05:45:08.208Z,1.88
2022-12-20T05:47:48.065Z,1.89
2022-12-20T05:50:21.388Z,1.89
2022-12-20T05:53:13.014Z,1.89
2022-12-20T05:55:52.177Z,1.89
2022-12-20T06:03:17.879Z,1.75
2022-12-20T06:05:51.036Z,1.75
2022-12-20T06:08:42.938Z,1.78
2022-12-20T06:11:25.771Z,1.79
2022-12-20T06:14:07.181Z,1.81
2022-12-20T06:16:44.627Z,1.81
2022-12-20T06:19:21.421Z,1.84
2022-12-20T06:21:59.241Z,1.87
2022-12-20T06:24:51.653Z,1.88
2022-12-20T06:27:28.065Z,1.84
2022-12-20T06:30:12.818Z,1.83
2022-12-20T06:33:03.046Z,1.84
2022-12-20T06:35:43.838Z,1.85
2022-12-20T06:38:31.186Z,1.86
2022-12-20T06:41:18.203Z,1.81
2022-12-20T06:44:48.759Z,1.79
2022-12-20T06:48:47.410Z,1.80
2022-12-20T06:51:31.616Z,1.69
2022-12-20T06:54:59.567Z,1.69
2022-12-20T06:57:36.805Z,1.68
2022-12-20T07:00:17.008Z,1.69
2022-12-20T07:02:49.362Z,1.72
2022-12-20T07:05:21.922Z,1.77
2022-12-20T07:07:54.160Z,1.78
2022-12-20T07:10:26.932Z,1.78
2022-12-20T07:13:00.015Z,1.79
2022-12-20T07:19:25.781Z,1.73
2022-12-20T07:22:00.794Z,1.76
2022-12-20T07:24:33.111Z,1.83
2022-12-20T07:27:05.425Z,1.82
2022-12-20T07:29:40.316Z,1.90
2022-12-20T07:32:14.820Z,1.92
2022-12-20T07:35:15.221Z,1.93
2022-12-20T07:37:47.463Z,1.94
2022-12-20T07:40:19.980Z,1.94
2022-12-20T07:42:52.188Z,1.99
2022-12-20T07:46:07.823Z,2.03
2022-12-20T07:48:57.447Z,2.01
2022-12-20T07:51:33.200Z,2.05
2022-12-20T07:54:10.574Z,2.07
2022-12-20T07:56:48.552Z,2.08
2022-12-20T07:59:24.906Z,2.11
2022-12-20T08:02:02.543Z,2.13
2022-12-20T08:04:37.216Z,2.14
2022-12-20T08:07:11.102Z,2.18
2022-12-20T08:09:45.843Z,2.20
2022-12-20T08:12:21.773Z,2.22
2022-12-20T08:14:58.596Z,2.25
2022-12-20T08:17:30.955Z,2.26
2022-12-20T08:20:03.584Z,2.29
2022-12-20T08:22:36.308Z,2.30
2022-12-20T08:25:11.960Z,2.31
2022-12-20T08:27:44.144Z,2.31
2022-12-20T08:30:16.987Z,2.29
2022-12-20T08:32:49.888Z,2.31
2022-12-20T08:35:22.898Z,2.34
2022-12-20T08:37:57.692Z,2.36
2022-12-20T08:40:30.175Z,2.35
2022-12-20T08:43:08.334Z,2.35
2022-12-20T08:45:42.756Z,2.37
2022-12-20T08:48:45.623Z,2.37
2022-12-20T08:55:01.452Z,2.31
2022-12-20T08:57:34.318Z,2.35
2022-12-20T09:00:08.871Z,2.39
2022-12-20T09:02:41.452Z,2.45
2022-12-20T09:05:14.202Z,2.48
2022-12-20T09:08:20.864Z,2.51
2022-12-20T09:10:54.031Z,2.51
2022-12-20T09:14:21.418Z,2.55
2022-12-20T09:17:44.958Z,2.55
2022-12-20T09:20:17.952Z,2.57
2022-12-20T09:26:30.908Z,2.63
2022-12-20T09:29:35.500Z,2.68
2022-12-20T09:32:42.692Z,2.75
2022-12-20T09:35:24.900Z,2.80
2022-12-20T09:37:58.258Z,2.78
2022-12-20T09:40:45.923Z,2.88
2022-12-20T09:43:19.444Z,2.92
2022-12-20T09:46:06.767Z,3.00
2022-12-20T09:48:41.607Z,3.08
2022-12-20T09:51:33.235Z,3.13
2022-12-20T09:54:16.874Z,3.14
2022-12-20T09:56:57.200Z,3.13
2022-12-20T09:59:35.471Z,3.15
2022-12-20T10:02:44.451Z,3.16
2022-12-20T10:05:11.567Z,3.14
2022-12-20T10:07:52.448Z,3.13
2022-12-20T10:10:53.192Z,3.15
2022-12-20T10:13:46.894Z,3.13
2022-12-20T10:16:37.375Z,3.20
2022-12-20T10:19:34.259Z,3.16
2022-12-20T10:22:15.983Z,3.16
2022-12-20T10:24:57.332Z,3.15
2022-12-20T10:27:30.279Z,3.06
2022-12-20T10:30:02.983Z,3.14
2022-12-20T10:36:30.394Z,3.08
2022-12-20T10:42:36.039Z,3.12
2022-12-20T10:45:35.686Z,3.12
2022-12-20T10:48:55.061Z,3.12
2022-12-20T10:51:27.743Z,3.14
2022-12-20T10:54:21.697Z,3.20
2022-12-20T10:57:02.214Z,3.24
2022-12-20T10:59:42.400Z,3.27
2022-12-20T11:02:36.974Z,3.29
2022-12-20T11:05:27.119Z,3.28
2022-12-20T11:08:34.704Z,3.31
2022-12-20T11:11:19.873Z,3.30
2022-12-20T11:13:54.210Z,3.34
2022-12-20T11:16:36.471Z,3.35
2022-12-20T11:20:04.096Z,3.32
2022-12-20T11:22:52.834Z,3.32
2022-12-20T11:25:45.359Z,3.33
2022-12-20T11:28:40.560Z,3.33
2022-12-20T11:31:25.843Z,3.35
2022-12-20T11:34:09.655Z,3.34
2022-12-20T11:36:57.428Z,3.34
2022-12-20T11:39:40.219Z,3.34
2022-12-20T11:42:24.217Z,3.35
2022-12-20T11:45:11.738Z,3.37
2022-12-20T11:47:59.169Z,3.40
2022-12-20T11:50:53.500Z,3.42
2022-12-20T11:53:34.273Z,3.41
2022-12-20T11:56:12.423Z,3.43
2022-12-20T11:58:53.201Z,3.45
2022-12-20T12:01:32.179Z,3.47
2022-12-20T12:04:21.984Z,3.50
2022-12-20T12:07:03.810Z,3.52
2022-12-20T12:09:42.272Z,3.53
2022-12-20T12:12:26.018Z,3.53
2022-12-20T12:15:05.193Z,3.55
2022-12-20T12:17:46.940Z,3.55
2022-12-20T12:20:29.633Z,3.55
2022-12-20T12:23:08.592Z,3.56
2022-12-20T12:25:41.570Z,3.56
2022-12-20T12:28:16.325Z,3.57
2022-12-20T12:30:57.250Z,3.56
2022-12-20T12:33:38.976Z,3.56
2022-12-20T12:36:32.190Z,3.54
2022-12-20T12:39:27.753Z,3.52
2022-12-20T12:42:21.633Z,3.52
2022-12-20T12:44:58.079Z,3.53
2022-12-20T12:47:40.200Z,3.53
2022-12-20T12:50:24.486Z,3.52
2022-12-20T12:53:06.478Z,3.52
2022-12-20T12:55:45.632Z,3.49
2022-12-20T12:58:39.076Z,3.45
2022-12-20T13:02:03.980Z,3.44
2022-12-20T13:04:56.464Z,3.39
2022-12-20T13:07:44.810Z,3.38
2022-12-20T13:10:53.097Z,3.37
2022-12-20T13:13:26.425Z,3.35
2022-12-20T13:17:02.281Z,3.38
2022-12-20T13:19:38.922Z,3.36
2022-12-20T13:22:24.188Z,3.38
2022-12-20T13:24:59.199Z,3.39
2022-12-20T13:27:36.145Z,3.41
2022-12-20T13:30:29.525Z,3.41
2022-12-20T13:33:44.223Z,3.42
2022-12-20T13:36:37.303Z,3.36
2022-12-20T13:39:37.522Z,3.35
2022-12-20T13:42:28.183Z,3.35
2022-12-20T13:45:06.623Z,3.34
2022-12-20T13:47:46.738Z,3.33
2022-12-20T13:50:33.128Z,3.32
2022-12-20T13:53:08.076Z,3.32
2022-12-20T13:58:35.561Z,3.35
2022-12-20T14:01:13.845Z,3.36
2022-12-20T14:03:49.316Z,3.35
2022-12-20T14:06:27.128Z,3.36
2022-12-20T14:09:00.689Z,3.36
2022-12-20T14:11:33.587Z,3.37
2022-12-20T14:14:14.523Z,3.37
2022-12-20T14:16:47.459Z,3.37
2022-12-20T14:19:20.143Z,3.36
2022-12-20T14:21:53.418Z,3.39
2022-12-20T14:24:26.188Z,3.35
2022-12-20T14:27:05.668Z,3.32
2022-12-20T14:29:41.252Z,3.32
2022-12-20T14:32:38.271Z,3.31
2022-12-20T14:35:23.095Z,3.25
2022-12-20T14:38:47.963Z,3.25
2022-12-20T14:41:36.609Z,3.18
2022-12-20T14:44:22.583Z,3.20
2022-12-20T14:46:57.825Z,3.21
2022-12-20T14:49:32.936Z,3.18
2022-12-20T14:52:19.194Z,3.17
2022-12-20T14:55:46.129Z,3.19
2022-12-20T14:58:29.873Z,3.15
2022-12-20T15:01:57.667Z,3.10
2022-12-20T15:04:35.895Z,3.09
2022-12-20T15:07:26.289Z,3.10
2022-12-20T15:09:59.802Z,3.13
2022-12-20T15:12:35.173Z,3.14
2022-12-20T15:15:31.478Z,3.13
2022-12-20T15:18:13.775Z,3.12
2022-12-20T15:20:49.634Z,3.13
2022-12-20T15:23:23.754Z,3.14
2022-12-20T15:25:57.784Z,3.14
2022-12-20T15:28:31.041Z,3.10
2022-12-20T15:31:05.292Z,3.07
2022-12-20T15:33:40.282Z,3.07
2022-12-20T15:36:18.403Z,3.05
2022-12-20T15:39:12.137Z,3.04
2022-12-20T15:41:48.550Z,3.05
2022-12-20T15:44:24.102Z,3.06
2022-12-20T15:47:01.091Z,3.08
2022-12-20T15:49:37.921Z,3.11
2022-12-20T15:52:17.639Z,3.10
2022-12-20T15:54:51.084Z,3.05
2022-12-20T15:57:23.958Z,3.07
2022-12-20T16:00:01.146Z,3.04
2022-12-20T16:04:10.194Z,3.01
2022-12-20T16:06:43.547Z,3.02
2022-12-20T16:09:16.674Z,3.04
2022-12-20T16:16:02.326Z,2.95
2022-12-20T16:19:18.188Z,2.96
2022-12-20T16:21:53.960Z,2.95
2022-12-20T16:24:26.874Z,2.99
2022-12-20T16:27:02.161Z,3.03
2022-12-20T16:29:34.819Z,3.05
2022-12-20T16:32:15.760Z,3.07
2022-12-20T16:34:52.690Z,3.10
2022-12-20T16:37:28.493Z,3.09
2022-12-20T16:44:42.856Z,3.00
2022-12-20T16:47:18.992Z,2.98
2022-12-20T16:49:53.683Z,2.98
2022-12-20T16:52:29.969Z,2.98
2022-12-20T16:55:05.161Z,3.01
2022-12-20T16:57:38.114Z,3.02
2022-12-20T17:00:17.080Z,3.05
2022-12-20T17:02:51.626Z,3.06
2022-12-20T17:05:32.117Z,3.05
2022-12-20T17:11:16.668Z,3.00
2022-12-20T17:13:51.815Z,2.98
2022-12-20T17:16:27.586Z,2.93
2022-12-20T17:19:00.879Z,2.98
2022-12-20T17:24:29.858Z,2.98
2022-12-20T17:27:02.856Z,2.92
2022-12-20T17:29:36.967Z,2.94
2022-12-20T17:32:56.154Z,2.91
2022-12-20T17:36:38.098Z,2.89
2022-12-20T17:39:44.189Z,2.83
2022-12-20T17:42:17.152Z,2.85
2022-12-20T17:44:49.978Z,2.88
2022-12-20T17:47:22.711Z,2.93
2022-12-20T17:49:55.398Z,2.97
2022-12-20T17:52:28.876Z,2.95
2022-12-20T17:55:01.578Z,2.90
2022-12-20T17:57:34.457Z,2.90
2022-12-20T18:00:19.476Z,2.89
2022-12-20T18:02:56.740Z,2.89
2022-12-20T18:05:30.446Z,2.84
2022-12-20T18:08:03.401Z,2.86
2022-12-20T18:13:47.382Z,2.86
2022-12-20T18:16:22.221Z,2.84
2022-12-20T18:22:37.048Z,2.80
2022-12-20T18:25:14.054Z,2.77
2022-12-20T18:30:42.283Z,2.79
2022-12-20T18:33:28.082Z,2.78
2022-12-20T18:37:16.742Z,2.77
2022-12-20T18:40:44.460Z,2.69
2022-12-20T18:57:52.706Z,2.76
2022-12-20T19:00:25.612Z,2.67
2022-12-20T19:02:58.736Z,2.70
2022-12-20T19:06:06.892Z,2.74
2022-12-20T19:09:03.879Z,2.73
2022-12-20T19:11:34.364Z,2.72
2022-12-20T19:14:03.834Z,2.74
2022-12-20T19:16:33.652Z,2.78
2022-12-20T19:19:03.809Z,2.81
2022-12-20T19:21:35.800Z,2.82
2022-12-20T19:24:07.402Z,2.83
2022-12-20T19:26:40.516Z,2.84
2022-12-20T19:29:11.211Z,2.83
2022-12-20T19:31:41.460Z,2.82
2022-12-20T19:34:13.223Z,2.83
2022-12-20T19:36:47.754Z,2.81
2022-12-20T19:40:22.348Z,2.80
2022-12-20T19:42:51.672Z,2.76
2022-12-20T19:45:23.754Z,2.76
2022-12-20T19:47:55.198Z,2.80
2022-12-20T19:50:24.775Z,2.85
2022-12-20T19:52:54.137Z,2.85
2022-12-20T19:55:23.516Z,2.86
2022-12-20T19:57:52.882Z,2.87
2022-12-20T20:00:26.697Z,2.87
2022-12-20T20:02:58.442Z,2.82
2022-12-20T20:05:28.187Z,2.85
2022-12-20T20:07:57.515Z,2.83
2022-12-20T20:10:27.395Z,2.91
2022-12-20T20:13:25.128Z,2.92
2022-12-20T20:15:57.418Z,2.83
2022-12-20T20:30:28.208Z,2.92
2022-12-20T20:32:58.220Z,2.87
2022-12-20T20:35:27.961Z,2.88
2022-12-20T20:37:57.438Z,2.91
2022-12-20T20:40:29.193Z,2.95
2022-12-20T20:43:00.137Z,2.95
2022-12-20T20:45:29.703Z,2.96
2022-12-20T20:48:05.457Z,2.97
2022-12-20T20:50:36.034Z,2.97
2022-12-20T20:53:12.914Z,2.96
2022-12-20T20:55:42.731Z,2.96
2022-12-20T20:58:12.460Z,2.98
2022-12-20T21:00:41.787Z,3.00
2022-12-20T21:03:11.411Z,3.00
2022-12-20T21:06:42.304Z,3.03
2022-12-20T21:08:33.134Z,3.03
2022-12-20T21:11:06.364Z,3.02
2022-12-20T21:13:36.062Z,3.03
2022-12-20T21:16:10.888Z,3.02
2022-12-20T21:18:40.674Z,3.00
2022-12-20T21:21:12.389Z,3.00
2022-12-20T21:23:46.436Z,2.99
2022-12-20T21:26:20.460Z,3.00
2022-12-20T21:28:50.032Z,2.99
2022-12-20T21:31:20.293Z,2.99
2022-12-20T21:33:52.518Z,3.01
2022-12-20T21:36:22.444Z,3.00
2022-12-20T21:38:53.862Z,3.00
2022-12-20T21:41:24.819Z,3.01
2022-12-20T21:43:57.622Z,3.03
2022-12-20T21:46:29.142Z,3.01
2022-12-20T21:48:59.700Z,3.03
2022-12-20T21:51:30.672Z,3.06
2022-12-20T21:54:01.500Z,3.08
2022-12-20T21:56:35.903Z,3.09
2022-12-20T21:59:05.610Z,3.04
2022-12-20T22:01:35.135Z,3.01
2022-12-20T22:04:06.927Z,3.05
2022-12-20T22:07:00.170Z,3.03
2022-12-20T22:09:29.421Z,3.03
2022-12-20T22:11:58.715Z,3.02
2022-12-20T22:14:28.023Z,3.01
2022-12-20T22:16:59.981Z,3.02
2022-12-20T22:19:30.648Z,3.02
2022-12-20T22:22:00.173Z,3.04
2022-12-20T22:24:29.694Z,3.05
2022-12-20T22:26:58.943Z,3.07
2022-12-20T22:29:30.644Z,3.04
2022-12-20T22:31:59.977Z,3.02
2022-12-20T22:34:29.403Z,3.01
2022-12-20T22:36:59.018Z,2.99
2022-12-20T22:39:30.637Z,2.98
2022-12-20T22:42:09.439Z,2.98
2022-12-20T22:44:39.232Z,2.96
2022-12-20T22:47:08.548Z,2.97
2022-12-20T22:49:38.071Z,2.97
2022-12-20T22:52:08.140Z,2.96
2022-12-20T22:54:40.839Z,2.94
2022-12-20T22:57:25.181Z,2.92
2022-12-20T22:59:58.098Z,2.90
2022-12-20T23:02:27.951Z,2.90
2022-12-20T23:04:57.587Z,2.88
2022-12-20T23:07:26.826Z,2.87
2022-12-20T23:10:27.528Z,2.82
2022-12-20T23:13:15.342Z,2.82
2022-12-20T23:15:46.414Z,2.78
2022-12-20T23:18:15.913Z,2.75
2022-12-20T23:21:08.481Z,2.71
2022-12-20T23:23:38.471Z,2.67
2022-12-20T23:26:12.458Z,2.67
2022-12-20T23:28:42.496Z,2.69
2022-12-20T23:31:11.869Z,2.69
2022-12-20T23:33:42.682Z,2.70
2022-12-20T23:36:12.226Z,2.70
2022-12-20T23:38:41.495Z,2.69
2022-12-20T23:41:15.568Z,2.69
2022-12-20T23:43:44.900Z,2.71
2022-12-20T23:46:16.582Z,2.69
2022-12-20T23:48:46.468Z,2.65
2022-12-20T23:51:15.784Z,2.63
2022-12-20T23:53:45.155Z,2.65
2022-12-20T23:56:16.786Z,2.64
2022-12-20T23:58:49.995Z,2.63
